• Join FlightAware (Why Join?)
  • Login
  • US Flag 
08:57PM EDT


 

Airport Tracker/Info


-or-


 

Live Flight TrackerFlight Track Log ✈ N502QS ✈ 21-Aug-2013 ✈ KVNY - KSNA

Flight Track Log - Related Links

Times and Time Zones

All times are in EDT time to prevent confusion due to time zone crossing. See the N502QS flight status page for this flight to view local times or setup timezone preferences in your user account.

Time Position Orientation Groundspeed Altitude Reporting Facility
EDT Latitude Longitude Course Direction KTS MPH feet Rate Location/Type
12:19PM 34.1500 -118.4667 140° Southeast 209 241 2,500  Level Southern California TRACON
12:20PM 34.1333 -118.3833 104° East 258 297 6,300 3,180 Climbing Southern California TRACON
12:21PM 34.1333 -118.3000 90° East 295 339 8,900 1,320 Climbing Southern California TRACON
12:22PM 34.0833 -118.2333 132° Southeast 273 314 9,000 60 Climbing Southern California TRACON
12:23PM 34.0539 -118.2167 155° Southeast 287 330 9,000 -420 Level Los Angeles Center
12:24PM 33.9767 -118.2075 174° South 277 319 8,400 -720 Descending Los Angeles Center
12:25PM 33.9488 -118.1822 140° Southeast  Level FlightAware Approximate
12:25PM 33.9036 -118.1967 173° South 268 308 7,600  Level Los Angeles Center
12:26PM 33.8300 -118.2200 195° South 271 312 7,000 -900 Descending Los Angeles Center
12:27PM 33.7442 -118.1969 167° South 262 302 5,600 -960 Descending Los Angeles Center
12:28PM 33.7008 -118.1133 122° Southeast 262 302 5,000 -300 Descending Los Angeles Center
12:29PM 33.7000 -118.0167 91° East 255 293 5,000  Level Southern California TRACON
12:30PM 33.7167 -117.9500 73° East 229 264 5,000 -240 Level Southern California TRACON
12:31PM 33.7667 -117.9000 40° Northeast 231 266 4,600 -960 Descending Southern California TRACON
12:32PM 33.8167 -117.8667 29° Northeast 224 258 3,100 -780 Descending Southern California TRACON
12:34PM 33.8667 -117.8167 40° Northeast 207 238 3,000 -60 Descending Southern California TRACON
12:35PM 33.8500 -117.7667 112° Southeast 178 205 3,000 -120 Level Southern California TRACON
12:36PM 33.8167 -117.7833 203° Southwest 168 193 2,800 -480 Descending Southern California TRACON
12:37PM 33.7833 -117.8000 203° Southwest 123 142 2,100 -660 Descending Southern California TRACON
12:38PM 33.7500 -117.8167 203° Southwest 138 159 1,500 -660 Descending Southern California TRACON
12:39PM 33.7167 -117.8500 220° Southwest 139 160 800 -720 Descending Southern California TRACON